Time;durP1;ratioP1;P1;durP2;ratioP2;P2;SDS_P1;SDS_P2;PMS_P1;PMS_P2;Temp;Humidity;BMP_temperature;BMP_pressure;BME280_temperature;BME280_humidity;BME280_pressure;Samples;Min_cycle;Max_cycle;Signal;HPM_P1;HPM_P2
2023/08/11 00:01:56;;;;;;;2.72;0.50;;;;;;;18.49;97.21;100412.81;5000428;28;20436;-43
2023/08/11 00:04:23;;;;;;;1.75;0.43;;;;;;;18.48;96.90;100406.41;5015229;28;20056;-43
2023/08/11 00:06:49;;;;;;;1.05;0.85;;;;;;;18.46;97.09;100408.81;5014024;28;20428;-43
2023/08/11 00:09:16;;;;;;;2.78;0.90;;;;;;;18.43;96.98;100412.41;5017615;28;20041;-43
2023/08/11 00:11:43;;;;;;;2.05;0.40;;;;;;;18.41;97.04;100428.03;5017488;28;20150;-43
2023/08/11 00:14:10;;;;;;;2.83;0.60;;;;;;;18.40;96.98;100435.66;5017572;28;20081;-44
2023/08/11 00:16:37;;;;;;;4.10;0.75;;;;;;;18.38;97.02;100432.47;5017132;28;20056;-45
2023/08/11 00:19:04;;;;;;;4.47;1.33;;;;;;;18.40;97.24;100440.47;5017617;28;20045;-46
2023/08/11 00:21:30;;;;;;;3.47;0.73;;;;;;;18.41;97.15;100437.25;4999975;28;20610;-44
2023/08/11 00:23:57;;;;;;;1.60;0.85;;;;;;;18.40;97.05;100430.03;5017188;28;20053;-44
2023/08/11 00:26:24;;;;;;;3.33;0.70;;;;;;;18.41;97.01;100444.84;5033737;28;20048;-43
2023/08/11 00:28:52;;;;;;;2.53;1.25;;;;;;;18.40;97.15;100441.25;5036003;28;20072;-45
2023/08/11 00:31:18;;;;;;;2.88;1.02;;;;;;;18.41;97.21;100439.25;5037128;28;20042;-44
2023/08/11 00:33:47;;;;;;;5.40;1.23;;;;;;;18.40;96.91;100441.25;5037466;28;20049;-44
2023/08/11 00:36:15;;;;;;;7.95;1.75;;;;;;;18.37;96.55;100450.50;5032245;28;20132;-43
2023/08/11 00:38:42;;;;;;;6.85;1.50;;;;;;;18.34;96.29;100451.31;5037146;28;20050;-43
2023/08/11 00:41:09;;;;;;;9.55;2.83;;;;;;;18.31;96.04;100460.50;5036479;28;20124;-43
2023/08/11 00:43:35;;;;;;;7.45;2.30;;;;;;;18.32;95.70;100459.28;5036409;28;20056;-44
2023/08/11 00:46:13;;;;;;;7.55;1.73;;;;;;;18.30;95.34;100453.28;5033666;28;20045;-43
2023/08/11 00:48:43;;;;;;;12.68;2.88;;;;;;;18.27;95.13;100448.50;5033850;28;20495;-44
2023/08/11 00:51:13;;;;;;;9.00;2.28;;;;;;;18.25;94.99;100462.94;5033798;28;20056;-42
2023/08/11 00:53:40;;;;;;;10.57;2.47;;;;;;;18.25;94.80;100460.13;5033833;28;20439;-43
2023/08/11 00:56:08;;;;;;;8.48;2.70;;;;;;;18.23;94.40;100464.53;5033956;28;20080;-43
2023/08/11 00:58:35;;;;;;;10.20;2.50;;;;;;;18.22;94.19;100476.94;5033382;28;20052;-44
2023/08/11 01:01:01;;;;;;;11.18;3.10;;;;;;;18.18;94.08;100470.56;5033609;28;20547;-43
2023/08/11 01:03:28;;;;;;;12.20;2.85;;;;;;;18.16;93.91;100467.38;5033500;28;20041;-44
2023/08/11 01:06:26;;;;;;;10.02;2.22;;;;;;;18.13;94.11;100470.97;5031990;28;20057;-44
2023/08/11 01:09:16;;;;;;;9.57;3.22;;;;;;;18.08;93.86;100472.16;5020266;28;20496;-43
2023/08/11 01:12:05;;;;;;;8.15;2.03;;;;;;;18.05;94.02;100470.19;5033556;28;20049;-43
2023/08/11 01:14:59;;;;;;;8.95;2.70;;;;;;;17.98;93.99;100474.97;5032064;28;20054;-43
2023/08/11 01:17:29;;;;;;;7.85;2.10;;;;;;;17.92;93.78;100487.81;5024284;28;20072;-43
2023/08/11 01:19:58;;;;;;;10.48;3.40;;;;;;;17.87;93.98;100480.56;5033155;28;20128;-43
2023/08/11 01:22:28;;;;;;;14.02;3.15;;;;;;;17.77;94.19;100481.38;5033449;28;20041;-44
2023/08/11 01:24:55;;;;;;;6.85;2.78;;;;;;;17.68;94.11;100483.81;5033110;28;20045;-43
2023/08/11 01:27:22;;;;;;;8.50;2.13;;;;;;;17.60;94.19;100474.59;5033325;28;20095;-43
2023/08/11 01:29:49;;;;;;;8.80;2.60;;;;;;;17.53;93.72;100471.78;5032917;28;20100;-45
2023/08/11 01:32:19;;;;;;;7.95;2.95;;;;;;;17.49;93.54;100470.97;5033120;28;20153;-43
2023/08/11 01:34:47;;;;;;;9.38;2.40;;;;;;;17.46;93.41;100468.94;5031400;28;20053;-43
2023/08/11 01:37:14;;;;;;;9.70;2.17;;;;;;;17.41;93.00;100468.53;5032617;28;20046;-43
2023/08/11 01:39:41;;;;;;;9.07;2.80;;;;;;;17.34;92.74;100472.13;5028296;28;20045;-43
2023/08/11 01:42:08;;;;;;;9.13;2.58;;;;;;;17.31;92.85;100470.13;5026543;28;20049;-44
2023/08/11 01:44:35;;;;;;;11.02;2.45;;;;;;;17.27;92.59;100463.72;5030500;28;20515;-42
2023/08/11 01:47:03;;;;;;;9.55;2.75;;;;;;;17.24;92.68;100458.13;5032564;28;20041;-43
2023/08/11 01:49:30;;;;;;;12.18;3.13;;;;;;;17.21;92.76;100465.31;5024366;28;20061;-43
2023/08/11 01:51:57;;;;;;;13.07;2.67;;;;;;;17.16;92.50;100468.50;5026949;28;20049;-43
2023/08/11 01:54:24;;;;;;;13.40;2.40;;;;;;;17.13;92.60;100469.28;5032760;28;20041;-44
2023/08/11 01:56:51;;;;;;;14.13;2.88;;;;;;;17.10;92.49;100472.09;5030728;28;20045;-43
2023/08/11 01:59:19;;;;;;;10.48;2.72;;;;;;;17.05;92.66;100474.06;5032587;28;20088;-43
2023/08/11 02:01:46;;;;;;;9.32;3.08;;;;;;;17.02;92.64;100479.66;5032633;28;20408;-43
2023/08/11 02:04:13;;;;;;;12.07;2.40;;;;;;;16.97;92.85;100482.84;5031272;28;20136;-43
2023/08/11 02:06:40;;;;;;;11.15;2.55;;;;;;;16.95;92.87;100490.81;5026816;28;20060;-43
2023/08/11 02:09:11;;;;;;;12.73;2.38;;;;;;;16.94;92.99;100486.44;5032439;28;20048;-44
2023/08/11 02:11:39;;;;;;;9.45;2.40;;;;;;;16.91;92.98;100490.00;5032434;28;20496;-43
2023/08/11 02:14:06;;;;;;;8.75;2.65;;;;;;;16.89;93.07;100503.59;5032374;28;20076;-43
2023/08/11 02:16:33;;;;;;;11.35;3.75;;;;;;;16.84;93.16;100501.16;5032037;28;20041;-44
2023/08/11 02:19:00;;;;;;;22.98;5.88;;;;;;;16.82;93.16;100503.53;5032116;28;20447;-45
2023/08/11 02:21:28;;;;;;;15.95;3.08;;;;;;;16.79;93.53;100509.91;5032061;28;20041;-47
2023/08/11 02:23:55;;;;;;;9.25;2.30;;;;;;;16.76;93.82;100499.53;5032177;28;20091;-44
2023/08/11 02:26:22;;;;;;;8.48;2.15;;;;;;;16.71;93.90;100503.50;5031710;28;20045;-43
2023/08/11 02:28:50;;;;;;;9.45;3.25;;;;;;;16.69;93.97;100499.50;5030666;28;20049;-43
2023/08/11 02:31:17;;;;;;;16.10;2.65;;;;;;;16.67;94.00;100496.28;5032146;28;20053;-43
2023/08/11 02:33:46;;;;;;;10.02;2.97;;;;;;;16.66;94.12;100483.50;5032115;28;20492;-44
2023/08/11 02:36:14;;;;;;;8.73;2.95;;;;;;;16.67;94.15;100487.91;5029210;28;20053;-43
2023/08/11 02:38:41;;;;;;;13.02;2.60;;;;;;;16.66;94.19;100486.28;5031468;28;20049;-43
2023/08/11 02:41:08;;;;;;;14.38;3.15;;;;;;;16.62;94.09;100483.50;5021623;28;20038;-43
2023/08/11 02:43:36;;;;;;;12.05;2.58;;;;;;;16.62;94.27;100499.47;5030682;28;20477;-43
2023/08/11 02:46:07;;;;;;;9.70;2.88;;;;;;;16.61;94.46;100492.25;5025446;28;20491;-44
2023/08/11 02:48:34;;;;;;;12.93;2.70;;;;;;;16.58;94.55;100488.25;5031647;28;20122;-44
2023/08/11 02:51:03;;;;;;;12.93;2.97;;;;;;;16.56;94.36;100492.63;5031779;28;20068;-44
2023/08/11 02:53:30;;;;;;;12.10;2.80;;;;;;;16.54;94.41;100476.28;5031627;28;20068;-43
2023/08/11 02:56:00;;;;;;;12.13;2.47;;;;;;;16.53;94.34;100476.66;5031265;28;20041;-43
2023/08/11 02:58:28;;;;;;;13.05;3.28;;;;;;;16.51;94.12;100492.97;5031592;28;20101;-44
2023/08/11 03:00:56;;;;;;;16.25;2.72;;;;;;;16.50;94.03;100485.78;5029543;28;20042;-44
2023/08/11 03:03:23;;;;;;;8.75;2.72;;;;;;;16.49;93.95;100484.19;5031472;28;20053;-44
2023/08/11 03:05:50;;;;;;;12.38;2.92;;;;;;;16.48;93.82;100496.56;5031323;28;20137;-43
2023/08/11 03:08:17;;;;;;;9.10;2.42;;;;;;;16.43;93.92;100498.53;5030391;28;20049;-44
2023/08/11 03:10:44;;;;;;;13.65;3.90;;;;;;;16.39;93.84;100489.31;5031345;28;20571;-44
2023/08/11 03:13:22;;;;;;;11.73;2.47;;;;;;;16.35;93.79;100494.09;5030065;28;20510;-44
2023/08/11 03:15:49;;;;;;;14.30;3.30;;;;;;;16.35;93.82;100496.91;5031655;28;20068;-43
2023/08/11 03:18:16;;;;;;;15.52;3.88;;;;;;;16.35;93.72;100496.91;5031094;28;20071;-44
2023/08/11 03:20:42;;;;;;;15.75;2.65;;;;;;;16.34;93.58;100505.66;5031169;28;20111;-44
2023/08/11 03:23:09;;;;;;;14.80;2.63;;;;;;;16.29;93.72;100492.88;5031012;28;20045;-44
2023/08/11 03:25:36;;;;;;;9.95;2.50;;;;;;;16.27;93.51;100498.03;5031139;28;20053;-43
2023/08/11 03:28:03;;;;;;;10.38;3.88;;;;;;;16.26;93.71;100504.81;5031158;28;20038;-43
2023/08/11 03:30:31;;;;;;;10.52;2.22;;;;;;;16.23;93.62;100505.59;5031034;28;20076;-44
2023/08/11 03:32:58;;;;;;;13.05;2.25;;;;;;;16.22;93.77;100509.59;5031136;28;20045;-45
2023/08/11 03:35:25;;;;;;;15.00;2.78;;;;;;;16.19;93.53;100503.97;5031345;28;20392;-44
2023/08/11 03:37:52;;;;;;;10.88;3.65;;;;;;;16.17;93.40;100501.59;5029323;28;20044;-45
2023/08/11 03:40:19;;;;;;;11.27;2.47;;;;;;;16.13;93.37;100500.75;5030788;28;20149;-43
2023/08/11 03:42:46;;;;;;;9.35;2.60;;;;;;;16.15;93.17;100503.16;5029741;28;20053;-44
2023/08/11 03:45:13;;;;;;;12.00;2.67;;;;;;;16.14;93.09;100510.72;5031080;28;20056;-45
2023/08/11 03:47:41;;;;;;;10.05;2.50;;;;;;;16.15;92.80;100512.31;5031135;28;20045;-43
2023/08/11 03:50:09;;;;;;;15.27;4.05;;;;;;;16.11;92.81;100505.91;5030287;28;20120;-48
2023/08/11 03:52:37;;;;;;;20.13;3.47;;;;;;;16.09;93.02;100511.09;5030907;28;20132;-44
2023/08/11 03:55:05;;;;;;;12.45;3.30;;;;;;;16.07;92.57;100507.88;5030713;28;20053;-46
2023/08/11 03:57:31;;;;;;;12.80;3.05;;;;;;;16.03;92.54;100518.22;5031014;28;20041;-43
2023/08/11 03:59:58;;;;;;;16.05;3.05;;;;;;;16.03;92.53;100523.00;5029906;28;20052;-43
2023/08/11 04:02:25;;;;;;;16.10;3.90;;;;;;;16.00;92.26;100530.16;5031088;28;20104;-44
2023/08/11 04:04:52;;;;;;;12.52;2.80;;;;;;;15.97;92.26;100525.34;5029594;28;20047;-43
2023/08/11 04:07:19;;;;;;;18.85;3.63;;;;;;;15.95;92.27;100533.31;5030730;28;20053;-43
2023/08/11 04:09:46;;;;;;;7.70;2.38;;;;;;;15.93;92.24;100530.13;5030442;28;20056;-44
2023/08/11 04:12:13;;;;;;;10.73;2.80;;;;;;;15.92;92.00;100531.28;5029374;28;20136;-45
2023/08/11 04:14:40;;;;;;;9.73;2.90;;;;;;;15.88;92.09;100533.28;5029545;28;20052;-43
2023/08/11 04:17:07;;;;;;;12.25;3.38;;;;;;;15.89;91.95;100523.69;5030717;28;20491;-44
2023/08/11 04:19:34;;;;;;;18.50;3.70;;;;;;;15.87;91.91;100519.69;5031740;28;20041;-44
2023/08/11 04:22:01;;;;;;;14.73;2.72;;;;;;;15.86;91.86;100524.44;5033003;28;20407;-43
2023/08/11 04:24:27;;;;;;;10.82;4.05;;;;;;;15.84;91.96;100518.47;5033184;28;20150;-45
2023/08/11 04:26:54;;;;;;;14.25;4.03;;;;;;;15.83;91.97;100519.66;5034978;28;20041;-43
2023/08/11 04:29:21;;;;;;;14.30;2.97;;;;;;;15.80;91.82;100517.66;5034527;28;20060;-44
2023/08/11 04:31:48;;;;;;;5.82;2.70;;;;;;;15.78;91.72;100512.44;5034316;28;20041;-43
2023/08/11 04:34:16;;;;;;;19.25;3.53;;;;;;;15.77;91.79;100510.03;5033205;28;20060;-43
2023/08/11 04:36:43;;;;;;;14.40;2.72;;;;;;;15.76;91.76;100519.59;5034035;28;20387;-43
2023/08/11 04:39:10;;;;;;;16.75;3.03;;;;;;;15.76;91.92;100514.00;5033404;28;20128;-43
2023/08/11 04:41:37;;;;;;;11.27;2.95;;;;;;;15.74;91.91;100510.81;5034234;28;20446;-44
2023/08/11 04:44:04;;;;;;;14.88;4.68;;;;;;;15.72;92.00;100505.63;5032331;28;20041;-44
2023/08/11 04:46:31;;;;;;;14.75;3.97;;;;;;;15.72;91.93;100497.25;5033758;28;20053;-43
2023/08/11 04:48:58;;;;;;;13.45;3.30;;;;;;;15.71;91.63;100492.03;5047011;28;20158;-45
2023/08/11 04:51:25;;;;;;;15.95;3.88;;;;;;;15.71;91.85;100494.81;5032371;28;20057;-45
2023/08/11 04:53:52;;;;;;;14.73;3.40;;;;;;;15.68;91.85;100501.16;5034036;28;20549;-43
2023/08/11 04:56:20;;;;;;;23.17;3.90;;;;;;;15.65;91.84;100496.34;5033535;28;20076;-45
2023/08/11 04:58:46;;;;;;;13.32;3.60;;;;;;;15.64;91.89;100503.16;5033546;28;20041;-44
2023/08/11 05:01:14;;;;;;;8.00;2.97;;;;;;;15.65;91.82;100499.16;5031963;28;20040;-43
2023/08/11 05:03:42;;;;;;;13.95;2.90;;;;;;;15.62;91.75;100513.91;5033573;28;20072;-43
2023/08/11 05:06:10;;;;;;;28.35;6.18;;;;;;;15.61;91.91;100512.28;5031321;28;20069;-44
2023/08/11 05:08:37;;;;;;;17.38;3.55;;;;;;;15.61;91.79;100521.47;5033429;28;20084;-44
2023/08/11 05:11:04;;;;;;;10.93;3.03;;;;;;;15.61;91.78;100517.88;5033555;28;20080;-43
2023/08/11 05:13:31;;;;;;;10.50;3.22;;;;;;;15.59;91.90;100523.84;5033242;28;20057;-46
2023/08/11 05:15:58;;;;;;;14.55;3.33;;;;;;;15.61;91.70;100531.81;5033471;28;20134;-43
2023/08/11 05:18:24;;;;;;;12.85;2.58;;;;;;;15.63;91.77;100526.66;5033143;28;20045;-45
2023/08/11 05:21:05;;;;;;;16.15;3.08;;;;;;;15.64;91.84;100523.50;5033082;28;20049;-43
2023/08/11 05:23:32;;;;;;;14.02;3.13;;;;;;;15.63;91.58;100515.47;5033410;28;20049;-43
2023/08/11 05:25:59;;;;;;;15.00;3.20;;;;;;;15.64;91.72;100522.69;5032760;28;20057;-43
2023/08/11 05:28:26;;;;;;;11.07;2.78;;;;;;;15.63;91.70;100521.88;5032982;28;20136;-43
2023/08/11 05:30:56;;;;;;;10.60;2.60;;;;;;;15.65;91.67;100524.25;5032206;28;20055;-44
2023/08/11 05:33:24;;;;;;;14.82;3.15;;;;;;;15.66;91.72;100525.88;5033406;28;20046;-44
2023/08/11 05:35:51;;;;;;;12.55;2.55;;;;;;;15.70;91.67;100526.72;5032642;28;20052;-51
2023/08/11 05:38:22;;;;;;;13.75;3.47;;;;;;;15.70;91.62;100527.50;5029991;28;20033;-44
2023/08/11 05:40:52;;;;;;;8.50;3.03;;;;;;;15.72;91.60;100527.13;5033015;28;20399;-44
2023/08/11 05:43:19;;;;;;;11.25;2.85;;;;;;;15.73;91.72;100531.53;5033141;28;20041;-46
2023/08/11 05:45:45;;;;;;;9.65;2.42;;;;;;;15.75;91.87;100526.38;5032541;28;20069;-43
2023/08/11 05:48:13;;;;;;;10.05;2.03;;;;;;;15.80;91.84;100529.63;5032820;28;20072;-43
2023/08/11 05:50:43;;;;;;;13.88;2.65;;;;;;;15.82;92.03;100518.84;5032700;28;20053;-44
2023/08/11 05:53:11;;;;;;;7.95;2.42;;;;;;;15.86;91.96;100524.44;5032884;28;20519;-43
2023/08/11 05:55:38;;;;;;;10.25;2.75;;;;;;;15.87;91.97;100514.09;5033009;28;20049;-44
2023/08/11 05:58:05;;;;;;;15.00;2.85;;;;;;;15.89;92.02;100523.69;5031485;28;20045;-44
2023/08/11 06:00:32;;;;;;;14.25;2.40;;;;;;;15.93;92.13;100515.34;5031173;28;20044;-45
2023/08/11 06:03:02;;;;;;;13.18;2.33;;;;;;;15.95;91.91;100510.97;5032631;28;20660;-45
2023/08/11 06:05:32;;;;;;;6.95;2.22;;;;;;;15.99;91.91;100511.78;5032790;28;20136;-44
2023/08/11 06:07:59;;;;;;;11.90;2.50;;;;;;;16.01;91.77;100512.22;5031181;28;20086;-44
2023/08/11 06:10:33;;;;;;;7.80;1.75;;;;;;;16.04;92.06;100497.50;5032445;28;20053;-44
2023/08/11 06:13:00;;;;;;;6.97;2.20;;;;;;;16.08;91.96;100514.25;5032082;28;20041;-43
2023/08/11 06:15:27;;;;;;;8.55;2.05;;;;;;;16.11;91.82;100511.50;5032513;28;20049;-43
2023/08/11 06:17:53;;;;;;;14.80;2.95;;;;;;;16.13;91.81;100513.91;5032051;28;20045;-44
2023/08/11 06:20:21;;;;;;;7.65;2.20;;;;;;;16.18;91.67;100516.31;5030760;28;20053;-44
2023/08/11 06:23:07;;;;;;;7.82;2.92;;;;;;;16.20;91.64;100519.56;5032010;28;20111;-43
2023/08/11 06:25:34;;;;;;;8.10;2.17;;;;;;;16.24;91.59;100518.38;5032040;28;20060;-43
2023/08/11 06:28:01;;;;;;;14.63;2.35;;;;;;;16.28;91.31;100513.59;5030362;28;20404;-43
2023/08/11 06:30:28;;;;;;;11.20;2.00;;;;;;;16.32;91.24;100508.84;5031377;28;20037;-45
2023/08/11 06:32:56;;;;;;;17.05;2.70;;;;;;;16.37;91.16;100528.03;5031822;28;20550;-47
2023/08/11 06:35:24;;;;;;;13.30;2.00;;;;;;;16.40;90.92;100520.88;5032254;28;20049;-43
2023/08/11 06:37:52;;;;;;;12.23;5.07;;;;;;;16.47;90.72;100534.88;5031365;28;20061;-44
2023/08/11 06:40:18;;;;;;;7.40;2.00;;;;;;;16.50;90.53;100531.31;5032173;28;20042;-44
2023/08/11 06:42:47;;;;;;;13.23;2.75;;;;;;;16.53;90.39;100529.75;5031500;28;20132;-44
2023/08/11 06:45:14;;;;;;;9.65;2.20;;;;;;;16.58;90.08;100532.16;5032066;28;20494;-43
2023/08/11 06:47:41;;;;;;;9.65;2.00;;;;;;;16.63;90.06;100537.38;5031495;28;20504;-44
2023/08/11 06:50:09;;;;;;;6.03;2.35;;;;;;;16.68;89.81;100542.63;5028962;28;20029;-43
2023/08/11 06:52:35;;;;;;;8.68;2.25;;;;;;;16.75;89.81;100546.25;5031438;28;20052;-44
2023/08/11 06:55:03;;;;;;;8.35;2.40;;;;;;;16.84;89.47;100540.28;5031401;28;20056;-44
2023/08/11 06:57:30;;;;;;;10.00;2.15;;;;;;;16.93;89.19;100535.16;5018333;28;20095;-45
2023/08/11 06:59:57;;;;;;;8.88;2.00;;;;;;;17.10;89.07;100542.81;5031565;28;20503;-44
2023/08/11 07:02:24;;;;;;;6.25;1.70;;;;;;;17.30;88.52;100535.69;5028729;28;20053;-45
2023/08/11 07:04:51;;;;;;;10.30;1.88;;;;;;;17.48;88.04;100539.31;5030567;28;20103;-45
2023/08/11 07:07:18;;;;;;;10.82;2.95;;;;;;;17.59;87.47;100545.78;5026290;28;20061;-43
2023/08/11 07:09:45;;;;;;;6.97;1.75;;;;;;;17.69;86.89;100540.56;5031013;28;20045;-47
2023/08/11 07:12:12;;;;;;;10.50;2.03;;;;;;;17.77;86.42;100534.59;5026237;28;20451;-45
2023/08/11 07:14:40;;;;;;;9.90;2.30;;;;;;;17.86;86.25;100546.22;5031117;28;20045;-44
2023/08/11 07:17:07;;;;;;;13.57;3.50;;;;;;;17.97;85.93;100551.81;5030837;28;20059;-45
2023/08/11 07:19:34;;;;;;;12.15;2.05;;;;;;;18.03;85.08;100551.00;5031620;28;20077;-45
2023/08/11 07:22:01;;;;;;;11.63;2.42;;;;;;;18.05;84.37;100547.81;5031136;28;20132;-45
2023/08/11 07:24:28;;;;;;;5.85;2.13;;;;;;;18.08;84.12;100541.41;5030914;28;20053;-45
2023/08/11 07:26:55;;;;;;;9.88;1.83;;;;;;;18.11;83.78;100535.00;5030863;28;20050;-46
2023/08/11 07:29:22;;;;;;;8.00;2.03;;;;;;;18.12;83.25;100542.19;5031178;28;20064;-44
2023/08/11 07:31:48;;;;;;;16.35;3.15;;;;;;;18.14;83.25;100539.78;5030923;28;20045;-45
2023/08/11 07:34:17;;;;;;;9.02;1.75;;;;;;;18.14;82.48;100522.97;5030898;28;20519;-44
2023/08/11 07:36:44;;;;;;;10.95;2.47;;;;;;;18.12;82.18;100525.38;5026207;28;20490;-43
2023/08/11 07:39:12;;;;;;;9.18;2.53;;;;;;;18.11;81.99;100524.59;5022775;28;20049;-44
2023/08/11 07:41:50;;;;;;;9.43;2.05;;;;;;;18.15;81.67;100530.19;5029300;28;20059;-44
2023/08/11 07:44:17;;;;;;;7.75;2.38;;;;;;;18.18;81.56;100527.41;5028813;28;20610;-45
2023/08/11 07:46:44;;;;;;;9.70;2.70;;;;;;;18.20;80.86;100516.59;5028586;28;20369;-45
2023/08/11 07:49:12;;;;;;;7.60;2.05;;;;;;;18.24;80.91;100527.81;5031043;28;20048;-45
2023/08/11 07:51:40;;;;;;;10.02;2.50;;;;;;;18.29;81.00;100516.19;5029498;28;20570;-44
2023/08/11 07:54:09;;;;;;;8.40;2.25;;;;;;;18.37;80.79;100519.75;5032770;28;20045;-44
2023/08/11 07:56:36;;;;;;;8.48;2.03;;;;;;;18.46;81.10;100517.31;5034813;28;20069;-44
2023/08/11 07:59:03;;;;;;;11.00;2.42;;;;;;;18.55;80.99;100526.97;5034651;28;20055;-44
2023/08/11 08:01:30;;;;;;;11.98;3.00;;;;;;;18.71;81.28;100529.31;5034681;28;20053;-43
2023/08/11 08:03:57;;;;;;;16.17;3.65;;;;;;;18.85;81.62;100541.28;5034622;28;20129;-44
2023/08/11 08:06:24;;;;;;;10.68;3.00;;;;;;;19.01;80.98;100523.97;5034680;28;20096;-49
2023/08/11 08:08:51;;;;;;;11.35;2.95;;;;;;;19.17;81.16;100515.09;5041642;28;20043;-46
2023/08/11 08:11:19;;;;;;;9.23;1.85;;;;;;;19.32;81.39;100531.47;5038601;28;20136;-44
2023/08/11 08:13:46;;;;;;;11.05;3.08;;;;;;;19.48;80.63;100516.97;5034812;28;20077;-45
2023/08/11 08:16:13;;;;;;;16.40;2.30;;;;;;;19.69;81.06;100522.44;5034255;28;20057;-43
2023/08/11 08:18:40;;;;;;;9.63;3.03;;;;;;;19.97;80.78;100519.38;5034062;28;20042;-47
2023/08/11 08:21:07;;;;;;;11.77;2.50;;;;;;;20.34;81.08;100531.94;5034200;28;20153;-46
2023/08/11 08:23:34;;;;;;;10.43;2.42;;;;;;;20.72;79.78;100544.78;5034351;28;20068;-45
2023/08/11 08:26:01;;;;;;;13.13;2.58;;;;;;;21.17;77.81;100529.41;5034477;28;20057;-43
2023/08/11 08:28:28;;;;;;;14.00;4.03;;;;;;;21.84;75.74;100531.22;5034692;28;20133;-42
2023/08/11 08:30:58;;;;;;;10.82;2.88;;;;;;;22.56;72.78;100528.00;5034129;28;20045;-42
2023/08/11 08:33:24;;;;;;;14.07;2.83;;;;;;;23.15;70.19;100539.31;5031071;28;20061;-44
2023/08/11 08:35:51;;;;;;;12.07;3.17;;;;;;;23.73;66.57;100535.59;5033296;28;20052;-42
2023/08/11 08:38:18;;;;;;;8.77;2.40;;;;;;;24.30;64.13;100546.34;5033992;28;20063;-43
2023/08/11 08:40:45;;;;;;;11.38;2.67;;;;;;;24.81;61.66;100548.22;5033994;28;20049;-43
2023/08/11 08:43:12;;;;;;;11.52;2.60;;;;;;;25.20;60.02;100549.13;5033903;28;20045;-43
2023/08/11 08:45:44;;;;;;;10.55;2.53;;;;;;;25.60;58.33;100552.41;5033798;28;20055;-43
2023/08/11 08:48:24;;;;;;;8.25;2.35;;;;;;;25.84;57.29;100548.00;5033978;28;20064;-43
2023/08/11 08:50:51;;;;;;;13.93;1.98;;;;;;;26.14;55.60;100541.72;5033711;28;20534;-43
2023/08/11 08:53:19;;;;;;;9.52;3.15;;;;;;;26.27;54.23;100541.69;5033649;28;20601;-43
2023/08/11 08:55:46;;;;;;;13.00;2.50;;;;;;;26.25;52.84;100536.50;5020520;28;20042;-43
2023/08/11 08:58:14;;;;;;;5.45;1.98;;;;;;;26.44;51.71;100548.81;5033787;28;20092;-45
2023/08/11 09:00:42;;;;;;;11.77;2.75;;;;;;;26.74;51.40;100541.69;5032984;28;20500;-42
2023/08/11 09:03:10;;;;;;;8.13;1.80;;;;;;;27.07;50.25;100538.00;5031778;28;20090;-43
2023/08/11 09:05:38;;;;;;;7.90;2.28;;;;;;;27.30;49.01;100541.63;5019127;28;20042;-43
2023/08/11 09:08:05;;;;;;;7.15;2.42;;;;;;;27.46;48.12;100538.56;5033687;28;20034;-43
2023/08/11 09:10:36;;;;;;;7.80;2.10;;;;;;;27.65;47.99;100534.56;5033573;28;20065;-50
2023/08/11 09:13:04;;;;;;;14.00;2.78;;;;;;;27.76;47.48;100552.00;5032529;28;20061;-44
2023/08/11 09:15:30;;;;;;;13.40;2.33;;;;;;;27.72;46.61;100549.28;5033379;28;20140;-43
2023/08/11 09:17:58;;;;;;;11.02;2.40;;;;;;;27.68;46.14;100553.56;5033191;28;20443;-43
2023/08/11 09:20:26;;;;;;;8.60;2.35;;;;;;;27.41;45.92;100537.13;5033355;28;20461;-45
2023/08/11 09:22:53;;;;;;;10.48;2.50;;;;;;;26.43;46.17;100541.53;5032597;28;20057;-47
2023/08/11 09:25:20;;;;;;;6.57;2.80;;;;;;;26.08;47.15;100528.56;5031757;28;20155;-44
2023/08/11 09:27:51;;;;;;;8.23;2.05;;;;;;;26.47;47.46;100539.38;5032785;28;20049;-45
2023/08/11 09:30:18;;;;;;;8.73;2.63;;;;;;;26.65;45.92;100538.75;5033423;28;20045;-42
2023/08/11 09:32:49;;;;;;;18.85;3.40;;;;;;;26.97;45.89;100529.88;5032914;28;20037;-43
2023/08/11 09:35:23;;;;;;;15.95;2.70;;;;;;;27.45;44.92;100537.81;5032116;28;20046;-43
2023/08/11 09:37:54;;;;;;;11.48;2.92;;;;;;;27.71;44.84;100524.16;5027252;28;20048;-42
2023/08/11 09:40:22;;;;;;;9.65;2.15;;;;;;;28.14;44.29;100521.19;5024770;28;20053;-43
2023/08/11 09:42:53;;;;;;;12.95;3.05;;;;;;;28.55;44.13;100516.16;5018726;28;20136;-45
2023/08/11 09:45:21;;;;;;;9.57;2.90;;;;;;;28.29;43.06;100519.31;5031816;28;20042;-44
2023/08/11 09:47:48;;;;;;;9.13;2.42;;;;;;;27.49;43.80;100515.69;5032761;28;20333;-43
2023/08/11 09:50:15;;;;;;;9.88;2.08;;;;;;;26.63;43.96;100522.94;5031841;28;20077;-45
2023/08/11 09:52:44;;;;;;;10.23;2.42;;;;;;;25.91;45.10;100506.00;5033026;28;20059;-44
2023/08/11 09:55:13;;;;;;;12.88;2.38;;;;;;;25.78;45.66;100510.88;5032687;28;20081;-44
2023/08/11 09:57:41;;;;;;;15.52;2.55;;;;;;;25.60;45.70;100502.13;5031326;28;20033;-43
2023/08/11 10:00:12;;;;;;;11.30;3.78;;;;;;;25.49;46.31;100513.03;5032206;28;20041;-49
2023/08/11 10:03:01;;;;;;;15.70;3.17;;;;;;;26.15;45.48;100516.97;5032087;28;20127;-44
2023/08/11 10:05:30;;;;;;;18.10;3.22;;;;;;;26.78;44.22;100523.28;5032658;28;20046;-43
2023/08/11 10:08:00;;;;;;;12.18;2.63;;;;;;;26.55;44.63;100521.66;5032597;28;20064;-43
2023/08/11 10:10:27;;;;;;;13.75;3.38;;;;;;;26.51;44.67;100508.81;5032296;28;20133;-45
2023/08/11 10:12:59;;;;;;;11.50;2.67;;;;;;;26.01;44.32;100510.50;5030212;28;20049;-46
2023/08/11 10:15:29;;;;;;;14.18;2.60;;;;;;;25.67;45.92;100506.78;5027206;28;20419;-44
2023/08/11 10:17:56;;;;;;;14.27;3.45;;;;;;;25.98;45.42;100507.78;5031335;28;20049;-43
2023/08/11 10:20:23;;;;;;;13.60;2.78;;;;;;;25.95;45.12;100500.97;5030582;28;20059;-43
2023/08/11 10:22:51;;;;;;;14.27;3.35;;;;;;;26.14;45.42;100495.53;5032120;28;20132;-42
2023/08/11 10:25:18;;;;;;;13.40;3.50;;;;;;;25.87;45.51;100491.13;5031822;28;20050;-43
2023/08/11 10:27:46;;;;;;;13.30;4.00;;;;;;;25.30;46.51;100497.81;5031862;28;20057;-44
2023/08/11 10:30:15;;;;;;;16.33;3.17;;;;;;;24.76;47.60;100500.59;5032313;28;20053;-43
2023/08/11 10:32:42;;;;;;;10.45;2.75;;;;;;;24.38;48.88;100496.81;5031648;28;20483;-45
2023/08/11 10:35:19;;;;;;;15.00;4.00;;;;;;;24.35;49.39;100492.06;5030723;28;20065;-45
2023/08/11 10:37:56;;;;;;;17.88;3.70;;;;;;;24.09;49.87;100490.31;5029237;28;20041;-43
2023/08/11 10:40:23;;;;;;;18.73;3.35;;;;;;;23.86;50.53;100482.78;5030981;28;20216;-43
2023/08/11 10:42:52;;;;;;;13.38;3.30;;;;;;;23.70;51.78;100479.16;5026481;28;20045;-43
2023/08/11 10:45:19;;;;;;;15.07;4.65;;;;;;;24.04;51.07;100482.34;5029548;28;20037;-44
2023/08/11 10:47:53;;;;;;;13.82;4.47;;;;;;;24.36;50.66;100485.13;5018460;28;20061;-44
2023/08/11 10:50:23;;;;;;;16.65;3.50;;;;;;;24.23;50.20;100482.25;5031498;28;20419;-45
2023/08/11 10:53:19;;;;;;;12.13;3.00;;;;;;;23.73;51.12;100486.75;5031403;28;20053;-45
2023/08/11 10:56:00;;;;;;;13.45;3.70;;;;;;;23.29;51.71;100480.50;5031107;28;20049;-44
2023/08/11 10:58:30;;;;;;;13.68;3.15;;;;;;;22.98;52.38;100473.53;5031299;28;20110;-43
2023/08/11 11:00:58;;;;;;;14.25;3.65;;;;;;;22.79;53.05;100463.84;5029847;28;20056;-43
2023/08/11 11:03:25;;;;;;;21.13;3.72;;;;;;;22.77;53.27;100476.81;5031320;28;20092;-42
2023/08/11 11:05:52;;;;;;;14.88;2.85;;;;;;;22.82;53.56;100476.31;5031354;28;20076;-44
2023/08/11 11:08:19;;;;;;;15.82;3.47;;;;;;;23.03;53.50;100473.03;5030795;28;20476;-43
2023/08/11 11:10:46;;;;;;;12.05;3.22;;;;;;;23.48;53.19;100482.47;5031332;28;20049;-43
2023/08/11 11:13:16;;;;;;;13.25;3.30;;;;;;;23.60;52.36;100470.50;5029120;28;20049;-43
2023/08/11 11:15:43;;;;;;;9.90;3.13;;;;;;;23.45;51.69;100457.97;5030555;28;20057;-43
2023/08/11 11:18:11;;;;;;;10.20;2.58;;;;;;;23.25;51.83;100465.66;5030994;28;20041;-43
2023/08/11 11:20:38;;;;;;;14.85;2.83;;;;;;;23.15;52.01;100463.88;5031237;28;20045;-44
2023/08/11 11:23:05;;;;;;;12.02;2.75;;;;;;;23.23;52.12;100441.91;5031113;28;20049;-43
2023/08/11 11:25:32;;;;;;;7.97;2.10;;;;;;;23.34;52.13;100440.44;5030958;28;20045;-43